Home > Products > Valid Products > TAF

000
FTUS43 KDVN 221200 AAA
TAFCID
TAF AMD
KCID 221225Z 2212/2312 17008KT 2SM -DZ BR OVC006 WS020/24040KT
      TEMPO 2212/2215 1/4SM FG OVC003
     FM221700 21012KT 5SM -DZ BR OVC010
     FM230000 18010KT 2SM -DZ BR OVC006
     FM230500 17012KT 1SM BR VCSH OVC004=



000
FTUS43 KDVN 221100 CCA
TAFDBQ
TAF COR
KDBQ 221154Z 2212/2312 20011KT 1SM -DZ BR OVC005 WS020/24040KT
      TEMPO 2212/2215 1/4SM FG VV002
     FM221800 21012KT 3SM -DZ BR OVC008
     FM230000 19009KT 1SM -DZ BR OVC004
     FM230600 18012KT 3/4SM BR VCSH OVC003=



000
FTUS43 KDVN 221100
TAFBRL
TAF
KBRL 221130Z 2212/2312 19011KT 5SM -DZ BR OVC008 WS020/24040KT
     FM221700 21011KT 6SM -DZ BR OVC015
     FM230000 19009KT 2SM -DZ BR VCSH OVC008=



000
FTUS43 KDVN 221100
TAFMLI
TAF
KMLI 221130Z 2212/2312 19008KT 3SM -DZ BR OVC008 WS020/24040KT
     FM221700 21011KT 5SM -DZ BR OVC012
     FM230000 19009KT 2SM -DZ BR VCSH OVC007=



000
FTUS43 KDVN 221100
TAFDBQ
TAF
KDBQ 221130Z 2212/2312 20011KT 1SM -DZ BR OVC005 WS020/24040KT
      TEMPO 2212/2215 1/2SM FG OVC002
     FM221800 21012KT 3SM -DZ BR OVC008
     FM230000 19009KT 1SM -DZ BR OVC004
     FM230600 18012KT 3/4SM BR VCSH OVC003=



000
FTUS43 KDVN 221100
TAFCID
TAF
KCID 221130Z 2212/2312 18009KT 3SM -DZ BR OVC006 WS020/24040KT
      TEMPO 2212/2215 1SM BR OVC003
     FM221700 21012KT 5SM -DZ BR OVC010
     FM230000 18010KT 2SM -DZ BR OVC006
     FM230500 17012KT 1SM BR VCSH OVC004=



000
FTUS43 KDVN 220900 AAA
TAFMLI
TAF AMD
KMLI 220949Z 2210/2306 19007KT 4SM -RA BR OVC012 WS020/21045KT
     FM221200 20009KT 4SM -DZ BR BKN006 OVC010 WS020/24040KT
     FM221700 21011KT 5SM -DZ BR OVC015
     FM230000 18010KT 2SM -DZ BR OVC006=



000
FTUS43 KDVN 220900 AAA
TAFMLI
TAF AMD
KMLI 220949Z 2210/2306 19007KT 4SM -RA BR OVC012 WS020/21045KT
     FM221200 20009KT 4SM -DZ BR BKN006 OVC010 WS020/24040KT
     FM221700 21011KT 5SM -DZ BR OVC015
     FM230000 18010KT 2SM -DZ BR OVC006=



000
FTUS43 KDVN 220900 AAB
TAFDBQ
TAF AMD
KDBQ 220948Z 2210/2306 20014KT 3SM -DZ BR OVC006 WS020/23045KT
      TEMPO 2210/2213 1SM BR OVC003
     FM221600 22013KT 5SM -DZ BR OVC012
     FM230000 18010KT 1SM -DZ BR OVC006=



000
FTUS43 KDVN 220900 AAB
TAFDBQ
TAF AMD
KDBQ 220948Z 2210/2306 20014KT 3SM -DZ BR OVC006 WS020/23045KT
      TEMPO 2210/2213 1SM BR OVC003
     FM221600 22013KT 5SM -DZ BR OVC012
     FM230000 18010KT 1SM -DZ BR OVC006=



000
FTUS43 KDVN 220900 AAA
TAFCID
TAF AMD
KCID 220919Z 2209/2306 18009KT 3SM -DZ BR OVC006 WS020/24040KT
     FM221700 21012KT 5SM -DZ BR OVC015
     FM230000 18010KT 1SM -DZ BR OVC006=



000
FTUS43 KDVN 220700 AAA
TAFDBQ
TAF AMD
KDBQ 220751Z 2208/2306 19014KT 5SM -FZRA BR OVC012 WS020/21045KT
     FM221200 19010KT 4SM -DZ BR BKN006 OVC012 WS020/24040KT
     FM221600 22013KT 5SM -DZ BR OVC012
     FM230000 18010KT 1SM -DZ BR OVC006=



000
FTUS43 KDVN 220500
TAFDBQ
TAF
KDBQ 220536Z 2206/2306 18012KT 6SM -FZRA BR OVC018 WS020/21045KT
     FM221200 19010KT 4SM -DZ BR BKN006 OVC012 WS020/24040KT
     FM221600 22013KT 5SM -DZ BR OVC012
     FM230000 18010KT 1SM -DZ BR OVC006=



000
FTUS43 KDVN 220500
TAFCID
TAF
KCID 220536Z 2206/2306 17012KT P6SM OVC015 WS020/21045KT
     FM221000 18009KT 3SM -DZ BR BKN006 OVC012 WS020/24040KT
     FM221700 21012KT 5SM -DZ BR OVC015
     FM230000 18010KT 1SM -DZ BR OVC006=



000
FTUS43 KDVN 220500
TAFMLI
TAF
KMLI 220536Z 2206/2306 17008KT 6SM -RA BR OVC018 WS020/21045KT
      TEMPO 2206/2207 5SM -RA BR
     FM221200 18009KT 4SM -DZ BR BKN006 OVC012 WS020/24040KT
     FM221700 21011KT 5SM -DZ BR OVC015
     FM230000 18010KT 2SM -DZ BR OVC006=



000
FTUS43 KDVN 220500
TAFBRL
TAF
KBRL 220536Z 2206/2306 17008KT P6SM OVC015 WS020/21045KT
     FM221100 18009KT 4SM -DZ BR BKN006 OVC012 WS020/24040KT
     FM221600 21011KT 5SM -DZ BR OVC015
     FM230000 18010KT 2SM -DZ BR OVC006=



000
FTUS43 KDVN 220500 AAC
TAFBRL
TAF AMD
KBRL 220504Z 2205/2224 18013KT 6SM -RA OVC018
      TEMPO 2205/2206 5SM -RA
     FM220900 17009KT 4SM -DZ BR BKN006 OVC015
     FM221600 20008KT 5SM -DZ BR OVC015=



000
FTUS43 KDVN 220400 AAB
TAFBRL
TAF AMD
KBRL 220401Z 2204/2224 18012KT 6SM -RA OVC018
     FM220900 17009KT 4SM -DZ BR BKN006 OVC015
     FM221600 20008KT 5SM -DZ BR OVC015=



000
FTUS43 KDVN 220400 AAB
TAFBRL
TAF AMD
KBRL 220401Z 2204/2224 18012KT 6SM -RA OVC018
     FM220900 17009KT 4SM -DZ BR BKN006 OVC015
     FM221600 20008KT 5SM -DZ BR OVC015=



000
FTUS43 KDVN 220400 AAC
TAFMLI
TAF AMD
KMLI 220400Z 2204/2224 16009KT P6SM BKN025
     FM220500 15012KT 6SM -RA BR OVC018
     FM220900 17009KT 2SM -DZ BR BKN006 OVC012
     FM221600 20008KT 3SM -DZ BR OVC015=



000
FTUS43 KDVN 220400 AAC
TAFMLI
TAF AMD
KMLI 220400Z 2204/2224 16009KT P6SM BKN025
     FM220500 15012KT 6SM -RA BR OVC018
     FM220900 17009KT 2SM -DZ BR BKN006 OVC012
     FM221600 20008KT 3SM -DZ BR OVC015=



000
FTUS43 KDVN 220200 AAB
TAFMLI
TAF AMD
KMLI 220220Z 2202/2224 15009KT P6SM BKN025
     FM220300 15012KT 6SM -RA BR OVC018
     FM220900 17009KT 2SM -DZ BR BKN006 OVC012
     FM221600 20008KT 3SM -DZ BR OVC015=



000
FTUS43 KDVN 220100 AAA
TAFBRL
TAF AMD
KBRL 220157Z 2202/2224 16010KT P6SM -RA OVC022
     FM220600 17009KT 4SM -DZ BR BKN006 OVC015
     FM221600 20008KT 5SM -DZ BR OVC015=



000
FTUS43 KDVN 220100 AAA
TAFCID
TAF AMD
KCID 220100Z 2201/2224 16010KT P6SM OVC018
     FM220300 16012KT 6SM -FZRA BR OVC015
     FM220900 18009KT 2SM -DZ BR BKN006 OVC012
     FM221600 21008KT 3SM -DZ BR OVC015=



000
FTUS43 KDVN 220100 AAA
TAFDBQ
TAF AMD
KDBQ 220100Z 2201/2224 18011KT P6SM BKN022
     FM220200 17008KT P6SM BKN018
     FM220500 16012KT 6SM -FZRA BR OVC015
     FM220900 17010KT 3SM -FZDZ BR BKN006 OVC012
     FM221200 17008KT 2SM -DZ BR OVC008
     FM221600 20012KT 3SM -DZ BR OVC012=



000
FTUS43 KDVN 220000 AAA
TAFMLI
TAF AMD
KMLI 220007Z 2200/2224 15008KT P6SM BKN030
     FM220100 14009KT P6SM BKN025
     FM220300 15012KT 6SM -FZRA BR OVC018
     FM220900 17009KT 2SM -DZ BR BKN006 OVC012
     FM221600 20008KT 3SM -DZ BR OVC015=



000
FTUS43 KDVN 212300
TAFDBQ
TAF
KDBQ 212327Z 2200/2224 17008KT P6SM SCT025 BKN035
     FM220200 16008KT P6SM BKN025
     FM220500 16012KT 6SM -FZRA BR OVC018
     FM220900 17010KT 3SM -FZDZ BR BKN006 OVC012
     FM221200 17008KT 2SM -DZ BR OVC008
     FM221600 20012KT 3SM -DZ BR OVC012=



000
FTUS43 KDVN 212300
TAFMLI
TAF
KMLI 212327Z 2200/2224 15008KT P6SM BKN035
     FM220100 14009KT P6SM BKN025
     FM220300 15012KT 6SM -FZRA BR OVC018
     FM220900 17009KT 2SM -DZ BR BKN006 OVC012
     FM221600 20008KT 3SM -DZ BR OVC015=



000
FTUS43 KDVN 212300
TAFCID
TAF
KCID 212327Z 2200/2224 15008KT P6SM OVC025
     FM220200 16012KT 6SM -FZRA BR OVC018
     FM220900 18009KT 2SM -DZ BR BKN006 OVC012
     FM221600 21008KT 3SM -DZ BR OVC015=



000
FTUS43 KDVN 212300
TAFBRL
TAF
KBRL 212327Z 2200/2224 16007KT P6SM OVC025
     FM220200 16012KT 6SM -FZRA BR OVC018
     FM220600 17009KT 4SM -DZ BR BKN006 OVC012
     FM221600 20008KT 5SM -DZ BR OVC015=



000
FTUS43 KDVN 212300 AAA
TAFMLI
TAF AMD
KMLI 212305Z 2123/2218 15008KT P6SM BKN035
     FM220100 14009KT P6SM BKN025
     FM220300 16012KT 3SM -FZRA BR BKN009 OVC018
     FM220700 18010KT 3SM -FZDZ BR BKN004 OVC007
     FM221000 20012KT 2SM -DZ BR OVC009=



000
FTUS43 KDVN 212200 AAA
TAFBRL
TAF AMD
KBRL 212249Z 2123/2218 16010KT P6SM OVC025
     FM220100 16012KT 3SM -FZRA BR BKN009 OVC015
     FM220600 20012KT 2SM -DZ BR OVC009=



000
FTUS43 KDVN 212200 AAA
TAFCID
TAF AMD
KCID 212248Z 2123/2218 16012KT P6SM BKN022
     FM220000 15009KT P6SM OVC018
     FM220200 16012KT 2SM -FZRA BR BKN007 OVC010
     FM220700 18010KT 1SM -FZDZ BR BKN004 OVC007
     FM221100 20012KT 3SM -DZ BR OVC009=



000
FTUS43 KDVN 211700 CCA
TAFCID
TAF COR
KCID 211750Z 2118/2218 16012KT P6SM SKC
     FM212200 15012KT P6SM SCT025 OVC040
     FM220200 16012KT 2SM -FZRA BR BKN007 OVC010
     FM220700 18010KT 1SM -FZDZ BR BKN004 OVC007
     FM221100 20012KT 3SM -DZ BR OVC009=



000
FTUS43 KDVN 211700 CCA
TAFDBQ
TAF COR
KDBQ 211750Z 2118/2218 16012KT P6SM SKC
     FM212300 15012KT P6SM SCT025 OVC040
     FM220400 16012KT 2SM -FZRA BR BKN007 OVC010
     FM220900 18010KT 1SM -FZDZ BR BKN004 OVC007
     FM221200 20012KT 1SM -DZ BR OVC009=



000
FTUS43 KDVN 211700 RRA
TAFCID
TAF
KCID 211745Z 2118/2218 16012KT P6SM SKC
     FM212200 15012KT P6SM SCT025 OVC040
     FM220200 16012KT 2SM -FZRA BR BKN007 OVC010
     FM220700 18010KT 1SM -FZDZ BR BKN004 OVC007
     FM221100 20012KT 3SM -DZ OVC009=



000
FTUS43 KDVN 211700 RRA
TAFDBQ
TAF
KDBQ 211745Z 2118/2218 16012KT P6SM SKC
     FM212300 15012KT P6SM SCT025 OVC040
     FM220400 16012KT 2SM -FZRA BR BKN007 OVC010
     FM220900 18010KT 1SM -FZDZ BR BKN004 OVC007
     FM221200 20012KT 1SM -DZ OVC009=



000
FTUS43 KDVN 211700 RRA
TAFBRL
TAF
KBRL 211745Z 2118/2218 16012KT P6SM SKC
     FM212200 15012KT P6SM SCT025 OVC040
     FM220100 16012KT 3SM -FZRA BR BKN009 OVC010
     FM220600 20012KT 2SM -DZ BR OVC009=



000
FTUS43 KDVN 211700 RRA
TAFMLI
TAF
KMLI 211745Z 2118/2218 16012KT P6SM SKC
     FM212200 15012KT P6SM SCT025 OVC040
     FM220300 16012KT 3SM -FZRA BR BKN009 OVC010
     FM220700 18010KT 3SM -FZDZ BR BKN004 OVC007
     FM221000 20012KT 2SM -DZ BR OVC009=



000
FTUS43 KDVN 211100 RRA
TAFMLI
TAF
KMLI 211130Z 2112/2212 VRB03KT P6SM SKC
     FM211500 14009KT P6SM FEW250
     FM220000 15011KT P6SM SCT025 BKN040
     FM220300 16013KT 5SM -FZRA BR SCT015 OVC025
     FM220900 20010KT 4SM BR VCSH OVC015=



000
FTUS43 KDVN 211100 RRA
TAFDBQ
TAF
KDBQ 211130Z 2112/2212 VRB03KT P6SM SKC
     FM211500 16009KT P6SM SKC
     FM220000 18011KT P6SM SCT025 BKN040
     FM220400 17013KT 6SM -FZDZ SCT015 OVC025
     FM220800 20012KT 3SM BR VCSH OVC010=



000
FTUS43 KDVN 211100 RRA
TAFBRL
TAF
KBRL 211130Z 2112/2212 11005KT P6SM SKC
     FM211500 14008KT P6SM SCT250
     FM212200 16011KT P6SM SCT025 BKN040
     FM220200 17013KT 5SM -RA BR SCT015 OVC025 PROB30 2202/2205 4SM
      -FZRA BR
     FM220600 18010KT 4SM BR VCSH OVC015=



000
FTUS43 KDVN 211100 RRA
TAFCID
TAF
KCID 211130Z 2112/2212 VRB03KT P6SM SKC
     FM211500 14010KT P6SM SCT250
     FM212200 15011KT P6SM SCT025 BKN040
     FM220300 16013KT 6SM -FZRA BR SCT015 OVC025
     FM220600 17010KT 4SM BR VCSH OVC015 PROB30 2206/2209 3SM -FZRA
      BR=



000
FTUS43 KDVN 210500
TAFBRL
TAF
KBRL 210537Z 2106/2206 VRB03KT P6SM SKC
     FM211500 14008KT P6SM SCT250
     FM212200 16011KT P6SM SCT025 BKN040
     FM220200 16013KT 6SM -RA SCT015 OVC025=



000
FTUS43 KDVN 210500
TAFDBQ
TAF
KDBQ 210537Z 2106/2206 VRB03KT P6SM SKC
     FM211500 16009KT P6SM SCT250
     FM220000 17011KT P6SM SCT025 BKN040
     FM220400 17013KT 6SM -FZDZ SCT015 OVC025=



000
FTUS43 KDVN 210500
TAFMLI
TAF
KMLI 210537Z 2106/2206 VRB03KT P6SM SKC
     FM211500 14009KT P6SM SCT250
     FM220000 15011KT P6SM SCT025 BKN040
     FM220300 16013KT 6SM -FZRA SCT015 OVC025=



000
FTUS43 KDVN 210500
TAFCID
TAF
KCID 210537Z 2106/2206 VRB03KT P6SM SKC
     FM211500 15010KT P6SM SCT250
     FM212200 16011KT P6SM SCT025 BKN040
     FM220200 16013KT 6SM -FZRA SCT015 OVC025=



000
FTUS43 KDVN 202300
TAFBRL
TAF
KBRL 202336Z 2100/2124 VRB04KT P6SM SKC
     FM211500 15008KT P6SM BKN150
     FM212200 16011KT P6SM SCT025 BKN040=



000
FTUS43 KDVN 202300
TAFMLI
TAF
KMLI 202336Z 2100/2124 VRB04KT P6SM SKC
     FM211500 15009KT P6SM BKN150=



000
FTUS43 KDVN 202300
TAFCID
TAF
KCID 202336Z 2100/2124 VRB04KT P6SM SKC
     FM211500 15010KT P6SM BKN150
     FM212200 16011KT P6SM SCT025 BKN040=



000
FTUS43 KDVN 202300
TAFDBQ
TAF
KDBQ 202336Z 2100/2124 VRB04KT P6SM SKC
     FM211500 16010KT P6SM BKN150=



000
FTUS43 KDVN 201800 AAA
TAFDBQ
TAF AMD
KDBQ 201836Z 2019/2118 30012G22KT P6SM SKC
     FM202300 VRB04KT P6SM SKC
     FM211400 16007KT P6SM SCT120=



000
FTUS43 KDVN 201800 AAA
TAFMLI
TAF AMD
KMLI 201836Z 2019/2118 29012G22KT P6SM SKC
     FM202300 VRB04KT P6SM SKC
     FM211400 15009KT P6SM SCT120=



000
FTUS43 KDVN 201700
TAFBRL
TAF
KBRL 201720Z 2018/2118 28012KT P6SM SKC
     FM202300 VRB04KT P6SM SKC
     FM211300 15009KT P6SM SCT120=



000
FTUS43 KDVN 201700
TAFDBQ
TAF
KDBQ 201720Z 2018/2118 30015KT P6SM SKC
     FM202300 VRB04KT P6SM SKC
     FM211400 16007KT P6SM SCT120=



000
FTUS43 KDVN 201700
TAFMLI
TAF
KMLI 201720Z 2018/2118 28012KT P6SM SKC
     FM202300 VRB04KT P6SM SKC
     FM211400 15009KT P6SM SCT120=



000
FTUS43 KDVN 201700
TAFCID
TAF
KCID 201720Z 2018/2118 30012KT P6SM SKC
     FM202300 VRB04KT P6SM SKC
     FM211300 15009KT P6SM SCT120=



000
FTUS43 KDVN 201100
TAFMLI
TAF
KMLI 201120Z 2012/2112 27008KT P6SM SKC
     FM201500 30010G16KT P6SM FEW025
     FM202300 29004KT P6SM SKC=



000
FTUS43 KDVN 201100
TAFCID
TAF
KCID 201120Z 2012/2112 27008KT P6SM SKC
     FM201500 30012G17KT P6SM FEW025
     FM202300 29004KT P6SM SKC=



000
FTUS43 KDVN 201100
TAFDBQ
TAF
KDBQ 201120Z 2012/2112 27008KT P6SM SKC
     FM201500 30012G17KT P6SM FEW025
     FM202300 29004KT P6SM SKC=



000
FTUS43 KDVN 201100
TAFBRL
TAF
KBRL 201120Z 2012/2112 27008KT P6SM SKC
     FM201500 30010G16KT P6SM FEW025
     FM202300 29004KT P6SM SKC=



000
FTUS43 KDVN 200500
TAFDBQ
TAF
KDBQ 200537Z 2006/2106 25008KT P6SM SCT040
     FM201500 30013G19KT P6SM SCT025
     FM202300 29004KT P6SM SKC=



000
FTUS43 KDVN 200500
TAFBRL
TAF
KBRL 200537Z 2006/2106 27008KT P6SM SCT040
     FM201500 30012G18KT P6SM SCT025
     FM202300 29004KT P6SM SKC=



000
FTUS43 KDVN 200500
TAFMLI
TAF
KMLI 200537Z 2006/2106 26010KT P6SM SCT040
     FM201500 30013G19KT P6SM SCT025
     FM202300 29004KT P6SM SKC=



000
FTUS43 KDVN 200500
TAFCID
TAF
KCID 200537Z 2006/2106 27010KT P6SM SCT040
     FM201500 30013G19KT P6SM SCT025
     FM202300 29004KT P6SM SKC=



000
FTUS43 KDVN 192300
TAFMLI
TAF
KMLI 192328Z 2000/2024 28015G22KT P6SM -SHSN BKN040
     FM200600 27010KT P6SM SCT040
     FM201500 30013G19KT P6SM SCT030=



000
FTUS43 KDVN 192300
TAFBRL
TAF
KBRL 192328Z 2000/2024 29013G19KT P6SM -SHSN BKN040
     FM200600 27010KT P6SM SCT040
     FM201500 30013G19KT P6SM SCT030=



000
FTUS43 KDVN 192300
TAFCID
TAF
KCID 192328Z 2000/2024 29012G17KT P6SM -SHSN SCT025 BKN040
     FM200600 27010KT P6SM SCT040
     FM201500 30013G19KT P6SM SCT030=



000
FTUS43 KDVN 192300
TAFDBQ
TAF
KDBQ 192328Z 2000/2024 29015G22KT P6SM -SHSN BKN040
     FM200600 27010KT P6SM SCT040
     FM201500 30013G19KT P6SM SCT030=



000
FTUS43 KDVN 192100 AAA
TAFMLI
TAF AMD
KMLI 192153Z 1922/2018 29020G30KT P6SM -SHSN OVC030
     FM192300 27010G15KT P6SM SCT025=



000
FTUS43 KDVN 192100 AAA
TAFDBQ
TAF AMD
KDBQ 192152Z 1922/2018 29018G28KT P6SM -SHSN OVC035
     FM200000 27010G20KT P6SM SCT020=



000
FTUS43 KDVN 192100 AAA
TAFCID
TAF AMD
KCID 192151Z 1922/2018 30020G30KT P6SM -SHSN OVC035
     FM192300 27010G15KT P6SM SCT020=



000
FTUS43 KDVN 191700
TAFCID
TAF
KCID 191720Z 1918/2018 30020G30KT P6SM -SHSN BKN025 OVC035
     FM192200 27010G15KT P6SM SCT020=



000
FTUS43 KDVN 191700
TAFMLI
TAF
KMLI 191720Z 1918/2018 29020G30KT P6SM -SHSN SCT025 OVC030
     FM192200 27010G15KT P6SM SCT025=



000
FTUS43 KDVN 191700
TAFDBQ
TAF
KDBQ 191720Z 1918/2018 29018G28KT P6SM -SHSN BKN025 OVC035
     FM200000 27010G20KT P6SM SCT020=



000
FTUS43 KDVN 191700
TAFBRL
TAF
KBRL 191720Z 1918/2018 29015G25KT P6SM -SHSN BKN025 OVC030
     FM192200 27010G15KT P6SM SCT030=



000
FTUS43 KDVN 191500 AAA
TAFMLI
TAF AMD
KMLI 191543Z 1916/2012 29015G25KT P6SM -SHSN SCT030 OVC035
     FM200000 28010G17KT P6SM BKN025=



000
FTUS43 KDVN 191500 AAB
TAFBRL
TAF AMD
KBRL 191542Z 1916/2012 29012KT P6SM OVC030
     FM191800 29012G22KT P6SM BKN030
     FM200000 28010G17KT P6SM BKN035=



000
FTUS43 KDVN 191500 AAA
TAFDBQ
TAF AMD
KDBQ 191539Z 1916/2012 29015G25KT P6SM -SHSN BKN020
      TEMPO 1916/1918 2SM -SN BR FEW015 OVC030
     FM200000 28010G17KT P6SM BKN025=



000
FTUS43 KDVN 191400 AAA
TAFBRL
TAF AMD
KBRL 191409Z 1914/2012 29010KT P6SM OVC035
     FM191500 30017G26KT P6SM BKN030
     FM200000 28010G17KT P6SM BKN035=



    US Dept of Commerce
    National Oceanic and Atmospheric Administration
    National Weather Service
    1325 East West Highway
    Silver Spring, MD 20910
    Page Author: NWS Internet Services Team
Disclaimer
Information Quality
Credits
Glossary
Privacy Policy
Freedom of Information Act (FOIA)
About Us
Career Opportunities